Clark, New Jersey
Current Conditions -  °F | °C
As of 3:35 PM on Wednesday 28 Jan 2015 (Local Time) from KLDJ Reporting Station
Clear Clear  
Wind Chill: 27°   Ceiling: Unl
Heat Index: 37°   Visibility: 10mi
Dew Point: 11°   Wind: 15mph
Humidity: 34%   Direction: 320°NW
Pressure: 30.12"   Gusts: 21mph
Location:  40.62°N, 74.31°W
Report Text: KLDJ 282035Z AUTO 32013G18KT 10SM CLR 03/M12 A3012 RMK AO2 T00251119
Loading
Personal Weather Stations






























Interactive Weather Map New forecast layout! Learn more

10-Day Weather Forecast

Advertisements
Track Severe Weather on mobile